createdAt,value
2022-08-01T00:02:29.232Z,19.17
2022-08-01T00:07:32.100Z,19.15
2022-08-01T00:12:35.168Z,19.10
2022-08-01T00:17:38.461Z,19.10
2022-08-01T00:22:41.461Z,19.06
2022-08-01T00:27:44.365Z,19.05
2022-08-01T00:32:47.273Z,19.06
2022-08-01T00:37:50.112Z,19.05
2022-08-01T00:42:53.005Z,19.01
2022-08-01T00:47:55.915Z,18.99
2022-08-01T00:53:00.160Z,18.98
2022-08-01T00:58:06.117Z,19.01
2022-08-01T01:03:09.814Z,19.02
2022-08-01T01:08:20.765Z,18.98
2022-08-01T01:13:49.609Z,18.91
2022-08-01T01:19:02.193Z,18.91
2022-08-01T01:24:11.967Z,18.90
2022-08-01T01:29:18.934Z,18.86
2022-08-01T01:34:24.781Z,18.81
2022-08-01T01:39:31.004Z,18.86
2022-08-01T01:44:35.620Z,18.86
2022-08-01T01:49:41.043Z,18.81
2022-08-01T01:54:46.671Z,18.77
2022-08-01T01:59:52.017Z,18.74
2022-08-01T02:04:56.499Z,18.69
2022-08-01T02:10:01.458Z,18.68
2022-08-01T02:15:06.165Z,18.69
2022-08-01T02:20:09.738Z,18.68
2022-08-01T02:25:28.178Z,18.65
2022-08-01T02:30:40.691Z,18.59
2022-08-01T02:36:30.305Z,18.55
2022-08-01T02:41:14.048Z,18.57
2022-08-01T02:46:26.899Z,18.59
2022-08-01T02:51:32.191Z,18.58
2022-08-01T02:56:36.097Z,18.55
2022-08-01T03:01:41.849Z,18.54
2022-08-01T03:06:46.965Z,18.56
2022-08-01T03:11:52.259Z,18.59
2022-08-01T03:16:57.107Z,18.57
2022-08-01T03:22:01.142Z,18.49
2022-08-01T03:27:05.222Z,18.48
2022-08-01T03:32:11.729Z,18.50
2022-08-01T03:38:00.325Z,18.53
2022-08-01T03:43:23.630Z,18.53
2022-08-01T03:48:33.609Z,18.49
2022-08-01T03:53:40.034Z,18.45
2022-08-01T03:58:50.039Z,18.43
2022-08-01T04:03:53.967Z,18.44
2022-08-01T04:08:56.967Z,18.40
2022-08-01T04:13:59.864Z,18.34
2022-08-01T04:19:03.282Z,18.34
2022-08-01T04:24:14.192Z,18.43
2022-08-01T04:29:18.841Z,18.56
2022-08-01T04:34:25.713Z,18.73
2022-08-01T04:39:32.990Z,18.99
2022-08-01T04:44:53.797Z,19.25
2022-08-01T04:49:57.824Z,19.41
2022-08-01T04:55:01.389Z,19.53
2022-08-01T05:00:05.487Z,19.59
2022-08-01T05:05:09.097Z,19.60
2022-08-01T05:10:12.418Z,19.61
2022-08-01T05:15:15.841Z,19.55
2022-08-01T05:20:18.859Z,19.28
2022-08-01T05:25:56.004Z,19.07
2022-08-01T05:30:47.519Z,18.95
2022-08-01T05:35:50.463Z,19.03
2022-08-01T05:40:53.309Z,19.15
2022-08-01T05:45:56.657Z,19.16
2022-08-01T05:50:59.575Z,19.11
2022-08-01T05:56:03.086Z,19.11
2022-08-01T06:01:05.931Z,19.11
2022-08-01T06:06:08.913Z,19.15
2022-08-01T06:11:24.044Z,19.29
2022-08-01T06:16:26.978Z,19.39
2022-08-01T06:21:29.853Z,19.46
2022-08-01T06:26:32.798Z,19.51
2022-08-01T06:31:35.769Z,19.61
2022-08-01T06:36:38.882Z,19.71
2022-08-01T06:41:42.725Z,19.89
2022-08-01T06:46:45.841Z,20.05
2022-08-01T06:51:48.714Z,20.17
2022-08-01T06:56:51.564Z,20.28
2022-08-01T07:01:54.461Z,20.42
2022-08-01T07:06:58.038Z,20.52
2022-08-01T07:12:01.426Z,20.62
2022-08-01T07:17:04.516Z,20.75
2022-08-01T07:22:07.531Z,20.81
2022-08-01T07:27:23.832Z,20.88
2022-08-01T07:32:30.443Z,20.98
2022-08-01T07:37:45.556Z,21.00
2022-08-01T07:42:52.396Z,21.12
2022-08-01T07:47:55.487Z,21.26
2022-08-01T07:52:58.373Z,21.40
2022-08-01T07:58:01.206Z,21.51
2022-08-01T08:03:04.228Z,21.59
2022-08-01T08:08:08.668Z,21.63
2022-08-01T08:13:11.608Z,21.70
2022-08-01T08:18:14.820Z,21.77
2022-08-01T08:23:42.520Z,21.88
2022-08-01T08:28:47.492Z,22.03
2022-08-01T08:33:50.292Z,22.12
2022-08-01T08:38:53.204Z,22.20
2022-08-01T08:43:57.927Z,22.27
2022-08-01T08:49:04.633Z,22.34
2022-08-01T08:54:12.703Z,22.41
2022-08-01T08:59:15.867Z,22.49
2022-08-01T09:04:19.376Z,22.58
2022-08-01T09:09:25.814Z,22.70
2022-08-01T09:14:31.239Z,22.83
2022-08-01T09:19:41.522Z,22.99
2022-08-01T09:25:18.149Z,23.13
2022-08-01T09:30:23.889Z,23.26
2022-08-01T09:35:36.210Z,23.45
2022-08-01T09:40:55.928Z,23.64
2022-08-01T09:46:12.590Z,23.84
2022-08-01T09:51:59.157Z,23.97
2022-08-01T09:57:15.384Z,24.14
2022-08-01T10:02:37.813Z,24.30
2022-08-01T10:07:58.172Z,24.43
2022-08-01T10:13:03.411Z,24.50
2022-08-01T10:18:16.387Z,24.59
2022-08-01T10:23:39.996Z,24.78
2022-08-01T10:28:49.320Z,24.99
2022-08-01T10:33:53.594Z,25.12
2022-08-01T10:38:57.301Z,25.28
2022-08-01T10:44:03.833Z,25.36
2022-08-01T10:49:16.631Z,25.47
2022-08-01T10:54:19.554Z,25.70
2022-08-01T10:59:49.115Z,25.95
2022-08-01T11:04:56.442Z,26.07
2022-08-01T11:10:14.935Z,26.02
2022-08-01T11:15:29.735Z,26.11
2022-08-01T11:20:41.761Z,26.22
2022-08-01T11:26:05.919Z,26.18
2022-08-01T11:31:14.094Z,26.10
2022-08-01T11:36:18.614Z,26.03
2022-08-01T11:41:38.044Z,26.09
2022-08-01T11:46:54.258Z,26.19
2022-08-01T11:52:04.510Z,26.28
2022-08-01T11:57:14.717Z,26.45
2022-08-01T12:02:30.889Z,26.40
2022-08-01T12:07:36.706Z,26.44
2022-08-01T12:12:46.333Z,26.49
2022-08-01T12:17:59.550Z,26.61
2022-08-01T12:23:06.948Z,26.84
2022-08-01T12:28:10.791Z,27.12
2022-08-01T12:33:19.856Z,27.33
2022-08-01T12:38:25.970Z,27.52
2022-08-01T12:43:32.593Z,27.62
2022-08-01T12:48:35.594Z,27.70
2022-08-01T12:53:40.821Z,27.85
2022-08-01T12:58:44.835Z,28.03
2022-08-01T13:04:07.680Z,28.17
2022-08-01T13:09:14.754Z,28.22
2022-08-01T13:14:30.424Z,28.16
2022-08-01T13:19:47.832Z,28.11
2022-08-01T13:24:50.742Z,28.11
2022-08-01T13:29:54.478Z,27.98
2022-08-01T13:35:11.400Z,27.93
2022-08-01T13:40:25.835Z,27.90
2022-08-01T13:45:28.706Z,27.85
2022-08-01T13:50:33.160Z,27.79
2022-08-01T13:55:36.052Z,27.72
2022-08-01T14:00:39.051Z,27.63
2022-08-01T14:05:41.937Z,27.55
2022-08-01T14:10:44.821Z,27.47
2022-08-01T14:15:48.422Z,27.40
2022-08-01T14:20:54.495Z,27.33
2022-08-01T14:26:04.131Z,27.19
2022-08-01T14:31:09.114Z,27.06
2022-08-01T14:36:29.669Z,26.92
2022-08-01T14:41:34.818Z,26.85
2022-08-01T14:46:37.959Z,26.83
2022-08-01T14:52:00.448Z,26.91
2022-08-01T14:57:04.664Z,27.05
2022-08-01T15:02:08.494Z,27.16
2022-08-01T15:07:12.410Z,27.19
2022-08-01T15:12:15.698Z,27.16
2022-08-01T15:17:21.600Z,27.07
2022-08-01T15:22:26.882Z,26.99
2022-08-01T15:27:30.232Z,26.93
2022-08-01T15:32:33.237Z,26.87
2022-08-01T15:37:40.877Z,26.82
2022-08-01T15:42:46.458Z,26.75
2022-08-01T15:47:49.332Z,26.70
2022-08-01T15:52:52.214Z,26.63
2022-08-01T15:57:55.825Z,26.57
2022-08-01T16:02:58.691Z,26.51
2022-08-01T16:08:03.578Z,26.45
2022-08-01T16:13:07.590Z,26.39
2022-08-01T16:18:16.140Z,26.36
2022-08-01T16:23:19.120Z,26.32
2022-08-01T16:28:22.076Z,26.31
2022-08-01T16:33:45.966Z,26.28
2022-08-01T16:38:48.157Z,26.24
2022-08-01T16:43:53.763Z,26.21
2022-08-01T16:48:58.036Z,26.20
2022-08-01T16:54:01.273Z,26.19
2022-08-01T16:59:06.971Z,26.17
2022-08-01T17:04:11.046Z,26.14
2022-08-01T17:09:13.908Z,26.06
2022-08-01T17:14:17.954Z,26.00
2022-08-01T17:19:26.808Z,25.96
2022-08-01T17:24:36.270Z,25.90
2022-08-01T17:29:43.839Z,25.81
2022-08-01T17:34:47.245Z,25.71
2022-08-01T17:39:50.310Z,25.64
2022-08-01T17:44:54.289Z,25.56
2022-08-01T17:50:02.638Z,25.49
2022-08-01T17:55:53.720Z,25.43
2022-08-01T18:00:30.005Z,25.36
2022-08-01T18:05:37.251Z,25.26
2022-08-01T18:10:40.437Z,25.17
2022-08-01T18:15:45.275Z,25.08
2022-08-01T18:20:48.267Z,24.98
2022-08-01T18:25:51.268Z,24.86
2022-08-01T18:30:57.313Z,24.69
2022-08-01T18:36:03.869Z,24.58
2022-08-01T18:41:10.210Z,24.49
2022-08-01T18:46:13.100Z,24.42
2022-08-01T18:51:16.006Z,24.34
2022-08-01T18:56:19.316Z,24.28
2022-08-01T19:01:22.597Z,24.21
2022-08-01T19:06:27.276Z,24.16
2022-08-01T19:11:32.199Z,24.11
2022-08-01T19:16:36.081Z,24.07
2022-08-01T19:21:44.634Z,24.03
2022-08-01T19:26:51.376Z,23.97
2022-08-01T19:31:54.477Z,23.97
2022-08-01T19:36:58.593Z,23.98
2022-08-01T19:42:01.727Z,24.00
2022-08-01T19:47:06.154Z,24.02
2022-08-01T19:52:09.991Z,24.00
2022-08-01T19:57:15.441Z,23.97
2022-08-01T20:02:22.886Z,23.98
2022-08-01T20:07:27.870Z,23.99
2022-08-01T20:12:31.181Z,23.95
2022-08-01T20:17:34.171Z,23.90
2022-08-01T20:22:41.180Z,23.85
2022-08-01T20:27:45.946Z,23.81
2022-08-01T20:32:49.340Z,23.82
2022-08-01T20:38:05.585Z,23.87
2022-08-01T20:43:11.838Z,23.89
2022-08-01T20:48:16.395Z,23.88
2022-08-01T20:53:19.330Z,23.81
2022-08-01T20:58:44.821Z,23.76
2022-08-01T21:04:32.966Z,23.68
2022-08-01T21:09:39.635Z,23.59
2022-08-01T21:14:56.100Z,23.51
2022-08-01T21:20:06.624Z,23.49
2022-08-01T21:25:13.342Z,23.47
2022-08-01T21:30:17.331Z,23.49
2022-08-01T21:35:22.662Z,23.47
2022-08-01T21:40:26.140Z,23.42
2022-08-01T21:45:30.143Z,23.38
2022-08-01T21:50:54.876Z,23.34
2022-08-01T21:56:14.905Z,23.34
2022-08-01T22:01:52.043Z,23.33
2022-08-01T22:07:00.174Z,23.30
2022-08-01T22:12:06.436Z,23.23
2022-08-01T22:17:14.019Z,23.16
2022-08-01T22:22:34.216Z,23.10
2022-08-01T22:28:05.765Z,23.06
2022-08-01T22:33:07.606Z,23.04
2022-08-01T22:38:20.995Z,23.05
2022-08-01T22:43:42.354Z,23.03
2022-08-01T22:48:51.334Z,23.00
2022-08-01T22:54:07.058Z,22.95
2022-08-01T22:59:42.585Z,22.86
2022-08-01T23:04:49.452Z,22.80
2022-08-01T23:09:55.277Z,22.77
2022-08-01T23:15:00.894Z,22.76
2022-08-01T23:20:06.924Z,22.77
2022-08-01T23:25:12.512Z,22.74
2022-08-01T23:30:15.653Z,22.66
2022-08-01T23:35:19.695Z,22.55
2022-08-01T23:40:24.960Z,22.50
2022-08-01T23:45:28.960Z,22.49
2022-08-01T23:50:51.828Z,22.45
2022-08-01T23:55:54.741Z,22.35
